createdAt,value
2022-07-27T00:00:54.040Z,100.00
2022-07-27T00:03:20.954Z,100.00
2022-07-27T00:05:47.682Z,100.00
2022-07-27T00:08:14.661Z,100.00
2022-07-27T00:10:41.893Z,100.00
2022-07-27T00:13:08.794Z,100.00
2022-07-27T00:15:35.576Z,100.00
2022-07-27T00:18:02.461Z,100.00
2022-07-27T00:20:30.114Z,100.00
2022-07-27T00:22:57.856Z,100.00
2022-07-27T00:25:26.918Z,100.00
2022-07-27T00:27:54.192Z,100.00
2022-07-27T00:30:20.959Z,100.00
2022-07-27T00:32:47.760Z,100.00
2022-07-27T00:35:14.846Z,100.00
2022-07-27T00:37:41.788Z,100.00
2022-07-27T00:40:10.168Z,100.00
2022-07-27T00:42:37.247Z,100.00
2022-07-27T00:45:05.375Z,100.00
2022-07-27T00:47:32.293Z,100.00
2022-07-27T00:50:00.043Z,100.00
2022-07-27T00:52:28.840Z,100.00
2022-07-27T00:54:56.057Z,100.00
2022-07-27T00:57:23.617Z,100.00
2022-07-27T00:59:50.373Z,100.00
2022-07-27T01:02:19.593Z,100.00
2022-07-27T01:04:49.991Z,100.00
2022-07-27T01:07:21.664Z,100.00
2022-07-27T01:09:59.915Z,100.00
2022-07-27T01:12:31.591Z,100.00
2022-07-27T01:15:00.026Z,100.00
2022-07-27T01:17:31.487Z,100.00
2022-07-27T01:19:59.408Z,100.00
2022-07-27T01:22:27.171Z,100.00
2022-07-27T01:24:54.047Z,100.00
2022-07-27T01:27:21.169Z,100.00
2022-07-27T01:29:48.859Z,100.00
2022-07-27T01:32:15.784Z,100.00
2022-07-27T01:34:42.604Z,100.00
2022-07-27T01:37:09.675Z,100.00
2022-07-27T01:39:36.567Z,100.00
2022-07-27T01:42:03.612Z,100.00
2022-07-27T01:44:30.640Z,100.00
2022-07-27T01:46:57.404Z,100.00
2022-07-27T01:49:24.424Z,100.00
2022-07-27T01:51:51.715Z,100.00
2022-07-27T01:54:18.533Z,100.00
2022-07-27T01:56:45.373Z,100.00
2022-07-27T01:59:16.093Z,100.00
2022-07-27T02:01:43.574Z,100.00
2022-07-27T02:04:10.434Z,100.00
2022-07-27T02:06:37.192Z,100.00
2022-07-27T02:09:03.989Z,100.00
2022-07-27T02:11:49.266Z,100.00
2022-07-27T02:14:16.658Z,100.00
2022-07-27T02:16:43.598Z,100.00
2022-07-27T02:19:10.973Z,100.00
2022-07-27T02:21:38.355Z,100.00
2022-07-27T02:24:05.615Z,100.00
2022-07-27T02:26:32.399Z,100.00
2022-07-27T02:28:59.202Z,100.00
2022-07-27T02:31:26.055Z,100.00
2022-07-27T02:33:56.815Z,100.00
2022-07-27T02:36:23.846Z,100.00
2022-07-27T02:38:50.655Z,100.00
2022-07-27T02:41:17.460Z,100.00
2022-07-27T02:43:44.278Z,100.00
2022-07-27T02:46:11.080Z,100.00
2022-07-27T02:48:38.347Z,100.00
2022-07-27T02:51:05.412Z,100.00
2022-07-27T02:53:32.609Z,100.00
2022-07-27T02:55:59.420Z,100.00
2022-07-27T02:58:26.265Z,100.00
2022-07-27T03:00:58.214Z,100.00
2022-07-27T03:03:34.536Z,100.00
2022-07-27T03:06:07.506Z,100.00
2022-07-27T03:08:35.192Z,100.00
2022-07-27T03:11:02.304Z,100.00
2022-07-27T03:13:29.100Z,100.00
2022-07-27T03:15:56.451Z,100.00
2022-07-27T03:18:23.415Z,100.00
2022-07-27T03:20:50.254Z,100.00
2022-07-27T03:23:20.072Z,100.00
2022-07-27T03:25:46.832Z,100.00
2022-07-27T03:28:13.669Z,100.00
2022-07-27T03:30:40.513Z,100.00
2022-07-27T03:33:07.372Z,100.00
2022-07-27T03:35:34.334Z,100.00
2022-07-27T03:38:02.180Z,100.00
2022-07-27T03:40:29.684Z,100.00
2022-07-27T03:42:56.742Z,100.00
2022-07-27T03:45:23.766Z,100.00
2022-07-27T03:47:50.535Z,100.00
2022-07-27T03:50:17.603Z,100.00
2022-07-27T03:52:45.734Z,100.00
2022-07-27T03:55:12.887Z,100.00
2022-07-27T03:57:39.615Z,100.00
2022-07-27T04:00:08.450Z,100.00
2022-07-27T04:02:35.335Z,100.00
2022-07-27T04:05:02.146Z,100.00
2022-07-27T04:07:28.990Z,100.00
2022-07-27T04:09:55.814Z,100.00
2022-07-27T04:12:22.553Z,100.00
2022-07-27T04:14:49.673Z,100.00
2022-07-27T04:17:56.264Z,100.00
2022-07-27T04:20:04.265Z,100.00
2022-07-27T04:22:31.198Z,100.00
2022-07-27T04:24:58.037Z,100.00
2022-07-27T04:27:25.506Z,100.00
2022-07-27T04:29:52.321Z,100.00
2022-07-27T04:32:19.222Z,100.00
2022-07-27T04:34:46.014Z,100.00
2022-07-27T04:37:12.999Z,100.00
2022-07-27T04:39:39.953Z,100.00
2022-07-27T04:42:06.955Z,100.00
2022-07-27T04:44:34.015Z,100.00
2022-07-27T04:47:00.802Z,100.00
2022-07-27T04:49:27.660Z,100.00
2022-07-27T04:51:54.489Z,100.00
2022-07-27T04:54:21.253Z,100.00
2022-07-27T04:56:48.206Z,100.00
2022-07-27T04:59:15.369Z,100.00
2022-07-27T05:01:42.753Z,100.00
2022-07-27T05:04:09.808Z,100.00
2022-07-27T05:06:36.838Z,100.00
2022-07-27T05:09:04.017Z,100.00
2022-07-27T05:11:30.858Z,100.00
2022-07-27T05:13:57.747Z,100.00
2022-07-27T05:16:28.598Z,100.00
2022-07-27T05:18:56.982Z,100.00
2022-07-27T05:21:24.215Z,100.00
2022-07-27T05:23:51.748Z,100.00
2022-07-27T05:26:18.667Z,100.00
2022-07-27T05:28:45.502Z,100.00
2022-07-27T05:31:12.273Z,100.00
2022-07-27T05:33:39.102Z,100.00
2022-07-27T05:36:07.802Z,100.00
2022-07-27T05:38:39.330Z,100.00
2022-07-27T05:41:07.708Z,100.00
2022-07-27T05:43:34.725Z,100.00
2022-07-27T05:46:02.022Z,100.00
2022-07-27T05:48:29.264Z,100.00
2022-07-27T05:50:56.104Z,100.00
2022-07-27T05:53:23.230Z,100.00
2022-07-27T05:55:58.341Z,100.00
2022-07-27T05:58:25.849Z,100.00
2022-07-27T06:00:53.184Z,100.00
2022-07-27T06:03:20.003Z,100.00
2022-07-27T06:05:46.773Z,100.00
2022-07-27T06:08:13.757Z,100.00
2022-07-27T06:10:41.234Z,100.00
2022-07-27T06:13:09.584Z,100.00
2022-07-27T06:15:38.222Z,100.00
2022-07-27T06:18:06.810Z,100.00
2022-07-27T06:20:33.761Z,100.00
2022-07-27T06:23:03.255Z,100.00
2022-07-27T06:25:35.796Z,100.00
2022-07-27T06:28:05.128Z,100.00
2022-07-27T06:30:32.504Z,100.00
2022-07-27T06:32:59.670Z,100.00
2022-07-27T06:35:26.892Z,100.00
2022-07-27T06:37:53.985Z,100.00
2022-07-27T06:40:21.104Z,100.00
2022-07-27T06:42:48.470Z,100.00
2022-07-27T06:45:15.829Z,100.00
2022-07-27T06:47:49.425Z,100.00
2022-07-27T06:50:21.309Z,100.00
2022-07-27T06:52:49.584Z,100.00
2022-07-27T06:55:16.639Z,100.00
2022-07-27T06:57:43.867Z,100.00
2022-07-27T07:00:11.851Z,100.00
2022-07-27T07:02:50.109Z,100.00
2022-07-27T07:05:16.934Z,100.00
2022-07-27T07:07:43.659Z,100.00
2022-07-27T07:10:10.434Z,100.00
2022-07-27T07:12:37.213Z,100.00
2022-07-27T07:15:05.053Z,100.00
2022-07-27T07:17:31.831Z,100.00
2022-07-27T07:19:58.629Z,100.00
2022-07-27T07:22:25.800Z,100.00
2022-07-27T07:24:52.958Z,100.00
2022-07-27T07:27:23.335Z,100.00
2022-07-27T07:29:50.181Z,100.00
2022-07-27T07:32:17.119Z,100.00
2022-07-27T07:34:43.894Z,100.00
2022-07-27T07:37:10.659Z,100.00
2022-07-27T07:39:37.404Z,100.00
2022-07-27T07:42:04.370Z,100.00
2022-07-27T07:44:38.305Z,100.00
2022-07-27T07:47:05.737Z,100.00
2022-07-27T07:49:37.676Z,100.00
2022-07-27T07:52:06.534Z,100.00
2022-07-27T07:54:33.438Z,100.00
2022-07-27T07:57:00.436Z,100.00
2022-07-27T07:59:27.238Z,100.00
2022-07-27T08:01:54.165Z,100.00
2022-07-27T08:04:21.121Z,100.00
2022-07-27T08:06:47.946Z,100.00
2022-07-27T08:09:16.976Z,100.00
2022-07-27T08:11:44.838Z,100.00
2022-07-27T08:14:11.753Z,100.00
2022-07-27T08:16:38.900Z,100.00
2022-07-27T08:19:06.021Z,100.00
2022-07-27T08:21:36.418Z,100.00
2022-07-27T08:24:03.493Z,100.00
2022-07-27T08:26:30.302Z,100.00
2022-07-27T08:28:57.087Z,100.00
2022-07-27T08:31:51.544Z,100.00
2022-07-27T08:34:13.309Z,100.00
2022-07-27T08:36:40.230Z,100.00
2022-07-27T08:39:08.617Z,100.00
2022-07-27T08:41:42.996Z,100.00
2022-07-27T08:44:13.662Z,100.00
2022-07-27T08:46:44.452Z,100.00
2022-07-27T08:49:13.209Z,100.00
2022-07-27T08:51:44.018Z,100.00
2022-07-27T08:54:13.882Z,100.00
2022-07-27T08:56:40.732Z,100.00
2022-07-27T08:59:07.633Z,100.00
2022-07-27T09:01:37.951Z,100.00
2022-07-27T09:04:05.015Z,100.00
2022-07-27T09:06:43.071Z,100.00
2022-07-27T09:09:11.716Z,100.00
2022-07-27T09:11:39.151Z,100.00
2022-07-27T09:14:09.050Z,97.66
2022-07-27T09:17:15.011Z,100.00
2022-07-27T09:19:23.358Z,100.00
2022-07-27T09:21:50.134Z,100.00
2022-07-27T09:24:45.095Z,94.89
2022-07-27T09:27:05.639Z,100.00
2022-07-27T09:29:35.533Z,91.02
2022-07-27T09:32:14.138Z,86.60
2022-07-27T09:34:41.018Z,90.44
2022-07-27T09:37:08.054Z,90.78
2022-07-27T09:39:34.845Z,97.33
2022-07-27T09:42:02.626Z,98.85
2022-07-27T09:44:42.688Z,89.36
2022-07-27T09:47:22.652Z,99.53
2022-07-27T09:49:49.873Z,100.00
2022-07-27T09:52:30.637Z,94.56
2022-07-27T09:55:05.745Z,87.07
2022-07-27T09:57:54.296Z,93.94
2022-07-27T10:00:23.113Z,84.27
2022-07-27T10:02:53.217Z,89.50
2022-07-27T10:05:23.709Z,86.71
2022-07-27T10:07:52.539Z,82.47
2022-07-27T10:10:20.825Z,85.04
2022-07-27T10:12:54.018Z,82.49
2022-07-27T10:15:23.849Z,77.84
2022-07-27T10:18:01.734Z,76.90
2022-07-27T10:20:29.878Z,83.80
2022-07-27T10:23:01.290Z,83.33
2022-07-27T10:25:33.734Z,81.28
2022-07-27T10:28:18.921Z,73.02
2022-07-27T10:30:48.312Z,70.89
2022-07-27T10:33:45.198Z,81.71
2022-07-27T10:36:17.158Z,86.04
2022-07-27T10:38:58.450Z,88.92
2022-07-27T10:41:40.845Z,98.40
2022-07-27T10:44:22.535Z,100.00
2022-07-27T10:46:54.446Z,100.00
2022-07-27T10:49:23.537Z,91.53
2022-07-27T10:51:53.226Z,75.03
2022-07-27T10:54:29.438Z,73.68
2022-07-27T10:56:59.257Z,83.76
2022-07-27T11:00:07.368Z,86.35
2022-07-27T11:02:40.833Z,100.00
2022-07-27T11:05:24.844Z,100.00
2022-07-27T11:08:29.552Z,100.00
2022-07-27T11:10:48.384Z,100.00
2022-07-27T11:13:19.105Z,100.00
2022-07-27T11:16:04.643Z,100.00
2022-07-27T11:18:44.330Z,100.00
2022-07-27T11:21:26.561Z,100.00
2022-07-27T11:23:56.754Z,100.00
2022-07-27T11:26:26.826Z,100.00
2022-07-27T11:28:54.186Z,100.00
2022-07-27T11:31:45.262Z,100.00
2022-07-27T11:34:09.191Z,100.00
2022-07-27T11:36:45.750Z,100.00
2022-07-27T11:39:15.185Z,100.00
2022-07-27T11:44:31.001Z,100.00
2022-07-27T11:47:01.960Z,100.00
2022-07-27T11:49:31.706Z,100.00
2022-07-27T11:52:07.272Z,94.39
2022-07-27T11:54:40.216Z,82.57
2022-07-27T11:57:18.952Z,65.12
2022-07-27T11:59:46.232Z,60.22
2022-07-27T12:02:17.807Z,58.50
2022-07-27T12:04:46.917Z,52.83
2022-07-27T12:07:28.722Z,54.51
2022-07-27T12:09:58.446Z,63.68
2022-07-27T12:12:26.964Z,62.30
2022-07-27T12:14:57.157Z,60.74
2022-07-27T12:17:40.435Z,65.18
2022-07-27T12:20:17.827Z,54.41
2022-07-27T12:22:46.912Z,58.90
2022-07-27T12:25:17.040Z,51.23
2022-07-27T12:27:56.537Z,52.60
2022-07-27T12:30:29.736Z,53.20
2022-07-27T12:32:56.766Z,52.30
2022-07-27T12:35:25.140Z,55.48
2022-07-27T12:38:04.122Z,49.82
2022-07-27T12:40:32.708Z,50.90
2022-07-27T12:43:05.151Z,58.11
2022-07-27T12:45:35.207Z,66.27
2022-07-27T12:48:13.679Z,78.05
2022-07-27T12:50:42.241Z,75.75
2022-07-27T12:53:10.988Z,59.78
2022-07-27T12:55:37.989Z,62.99
2022-07-27T12:58:04.905Z,62.67
2022-07-27T13:00:33.852Z,65.00
2022-07-27T13:03:02.385Z,80.04
2022-07-27T13:05:29.755Z,76.06
2022-07-27T13:07:56.668Z,60.77
2022-07-27T13:10:23.890Z,58.55
2022-07-27T13:12:51.288Z,56.28
2022-07-27T13:15:18.794Z,50.78
2022-07-27T13:17:46.593Z,51.03
2022-07-27T13:20:14.950Z,48.81
2022-07-27T13:22:43.789Z,49.62
2022-07-27T13:25:15.975Z,48.57
2022-07-27T13:27:45.174Z,47.98
2022-07-27T13:30:13.524Z,46.39
2022-07-27T13:32:41.142Z,45.98
2022-07-27T13:35:12.283Z,43.79
2022-07-27T13:37:40.101Z,45.16
2022-07-27T13:40:09.450Z,50.12
2022-07-27T13:42:36.482Z,49.27
2022-07-27T13:45:09.744Z,47.52
2022-07-27T13:47:38.010Z,48.49
2022-07-27T13:50:05.542Z,45.39
2022-07-27T13:52:32.434Z,48.17
2022-07-27T13:54:59.217Z,46.79
2022-07-27T13:57:25.980Z,47.26
2022-07-27T13:59:53.454Z,47.30
2022-07-27T14:02:23.201Z,46.33
2022-07-27T14:04:53.319Z,43.35
2022-07-27T14:07:24.834Z,49.11
2022-07-27T14:10:13.439Z,48.25
2022-07-27T14:12:40.331Z,59.58
2022-07-27T14:15:07.812Z,63.46
2022-07-27T14:17:34.961Z,54.79
2022-07-27T14:20:01.770Z,54.18
2022-07-27T14:22:28.763Z,48.68
2022-07-27T14:24:55.535Z,43.97
2022-07-27T14:27:22.321Z,44.56
2022-07-27T14:29:49.167Z,46.55
2022-07-27T14:32:15.947Z,47.40
2022-07-27T14:34:44.454Z,58.88
2022-07-27T14:37:11.427Z,69.63
2022-07-27T14:39:39.330Z,80.03
2022-07-27T14:42:06.512Z,79.00
2022-07-27T14:44:35.087Z,80.65
2022-07-27T14:47:02.080Z,60.76
2022-07-27T14:49:29.321Z,53.33
2022-07-27T14:51:56.814Z,56.62
2022-07-27T14:54:23.568Z,51.95
2022-07-27T14:56:50.382Z,62.55
2022-07-27T14:59:17.368Z,87.67
2022-07-27T15:01:44.519Z,94.53
2022-07-27T15:04:11.506Z,100.00
2022-07-27T15:06:39.234Z,99.56
2022-07-27T15:09:07.728Z,76.11
2022-07-27T15:11:34.674Z,81.62
2022-07-27T15:14:03.420Z,99.01
2022-07-27T15:16:32.387Z,100.00
2022-07-27T15:18:59.550Z,92.11
2022-07-27T15:21:27.029Z,88.45
2022-07-27T15:23:53.804Z,84.96
2022-07-27T15:26:20.620Z,67.80
2022-07-27T15:28:47.454Z,52.21
2022-07-27T15:31:14.463Z,57.61
2022-07-27T15:33:41.593Z,66.36
2022-07-27T15:36:08.502Z,69.80
2022-07-27T15:38:37.312Z,94.96
2022-07-27T15:41:04.741Z,91.06
2022-07-27T15:43:31.529Z,81.19
2022-07-27T15:45:58.311Z,77.82
2022-07-27T15:48:26.242Z,92.43
2022-07-27T15:50:54.465Z,96.30
2022-07-27T15:53:22.482Z,100.00
2022-07-27T15:55:49.931Z,100.00
2022-07-27T15:58:19.668Z,100.00
2022-07-27T16:00:48.736Z,100.00
2022-07-27T16:03:16.113Z,100.00
2022-07-27T16:05:44.801Z,100.00
2022-07-27T16:08:11.786Z,100.00
2022-07-27T16:10:39.773Z,100.00
2022-07-27T16:13:07.706Z,100.00
2022-07-27T16:15:54.061Z,100.00
2022-07-27T16:18:21.535Z,100.00
2022-07-27T16:20:48.280Z,100.00
2022-07-27T16:23:18.771Z,100.00
2022-07-27T16:26:07.981Z,100.00
2022-07-27T16:28:40.867Z,100.00
2022-07-27T16:31:11.644Z,100.00
2022-07-27T16:33:38.841Z,100.00
2022-07-27T16:36:06.028Z,100.00
2022-07-27T16:38:35.033Z,100.00
2022-07-27T16:41:05.584Z,100.00
2022-07-27T16:43:37.568Z,100.00
2022-07-27T16:46:07.507Z,100.00
2022-07-27T16:48:41.503Z,100.00
2022-07-27T16:51:10.926Z,100.00
2022-07-27T16:53:43.250Z,100.00
2022-07-27T16:56:11.409Z,100.00
2022-07-27T16:58:39.349Z,100.00
2022-07-27T17:01:06.809Z,100.00
2022-07-27T17:03:34.204Z,100.00
2022-07-27T17:06:05.987Z,100.00
2022-07-27T17:08:33.957Z,100.00
2022-07-27T17:11:02.359Z,100.00
2022-07-27T17:13:33.963Z,100.00
2022-07-27T17:16:06.955Z,100.00
2022-07-27T17:18:39.923Z,100.00
2022-07-27T17:21:12.327Z,100.00
2022-07-27T17:23:40.691Z,100.00
2022-07-27T17:26:09.603Z,100.00
2022-07-27T17:28:39.368Z,100.00
2022-07-27T17:31:09.556Z,100.00
2022-07-27T17:33:37.114Z,100.00
2022-07-27T17:36:04.371Z,100.00
2022-07-27T17:38:31.240Z,100.00
2022-07-27T17:40:58.140Z,100.00
2022-07-27T17:43:24.927Z,100.00
2022-07-27T17:45:51.831Z,100.00
2022-07-27T17:48:18.757Z,100.00
2022-07-27T17:50:45.559Z,100.00
2022-07-27T17:53:12.334Z,100.00
2022-07-27T17:55:40.229Z,100.00
2022-07-27T17:58:07.098Z,100.00
2022-07-27T18:00:34.049Z,100.00
2022-07-27T18:03:00.971Z,100.00
2022-07-27T18:05:27.805Z,100.00
2022-07-27T18:07:54.686Z,100.00
2022-07-27T18:10:21.584Z,100.00
2022-07-27T18:12:48.425Z,100.00
2022-07-27T18:15:34.811Z,100.00
2022-07-27T18:18:02.405Z,100.00
2022-07-27T18:20:29.234Z,100.00
2022-07-27T18:22:56.119Z,100.00
2022-07-27T18:25:23.087Z,100.00
2022-07-27T18:27:50.326Z,100.00
2022-07-27T18:30:18.061Z,100.00
2022-07-27T18:32:48.122Z,100.00
2022-07-27T18:35:15.066Z,100.00
2022-07-27T18:37:42.061Z,100.00
2022-07-27T18:40:09.646Z,100.00
2022-07-27T18:42:38.355Z,100.00
2022-07-27T18:45:11.575Z,100.00
2022-07-27T18:47:38.498Z,100.00
2022-07-27T18:50:06.734Z,100.00
2022-07-27T18:52:34.235Z,100.00
2022-07-27T18:55:01.161Z,100.00
2022-07-27T18:57:28.953Z,100.00
2022-07-27T18:59:55.725Z,100.00
2022-07-27T19:02:23.656Z,100.00
2022-07-27T19:04:54.031Z,100.00
2022-07-27T19:07:22.083Z,100.00
2022-07-27T19:09:50.788Z,100.00
2022-07-27T19:12:17.599Z,100.00
2022-07-27T19:14:44.582Z,100.00
2022-07-27T19:17:20.129Z,100.00
2022-07-27T19:19:47.454Z,100.00
2022-07-27T19:22:15.034Z,100.00
2022-07-27T19:24:41.812Z,100.00
2022-07-27T19:27:09.320Z,100.00
2022-07-27T19:29:36.105Z,100.00
2022-07-27T19:32:02.878Z,100.00
2022-07-27T19:34:29.685Z,100.00
2022-07-27T19:36:56.894Z,100.00
2022-07-27T19:39:23.693Z,100.00
2022-07-27T19:41:50.434Z,100.00
2022-07-27T19:44:22.059Z,100.00
2022-07-27T19:46:49.380Z,100.00
2022-07-27T19:49:18.432Z,100.00
2022-07-27T19:51:45.471Z,100.00
2022-07-27T19:54:12.244Z,100.00
2022-07-27T19:56:39.125Z,100.00
2022-07-27T19:59:06.666Z,100.00
2022-07-27T20:01:33.753Z,100.00
2022-07-27T20:04:00.926Z,100.00
2022-07-27T20:06:27.815Z,100.00
2022-07-27T20:08:59.427Z,100.00
2022-07-27T20:11:28.309Z,100.00
2022-07-27T20:13:55.126Z,100.00
2022-07-27T20:16:22.063Z,100.00
2022-07-27T20:18:48.941Z,100.00
2022-07-27T20:21:22.396Z,100.00
2022-07-27T20:23:52.327Z,100.00
2022-07-27T20:26:20.020Z,100.00
2022-07-27T20:28:49.934Z,100.00
2022-07-27T20:31:17.494Z,100.00
2022-07-27T20:33:44.481Z,100.00
2022-07-27T20:36:11.577Z,100.00
2022-07-27T20:38:38.496Z,100.00
2022-07-27T20:41:05.299Z,100.00
2022-07-27T20:43:32.419Z,100.00
2022-07-27T20:45:59.234Z,100.00
2022-07-27T20:48:26.103Z,100.00
2022-07-27T20:50:53.226Z,100.00
2022-07-27T20:53:20.415Z,100.00
2022-07-27T20:55:48.099Z,100.00
2022-07-27T20:58:15.124Z,100.00
2022-07-27T21:00:41.893Z,100.00
2022-07-27T21:03:08.716Z,100.00
2022-07-27T21:05:35.559Z,100.00
2022-07-27T21:08:02.494Z,100.00
2022-07-27T21:10:29.339Z,100.00
2022-07-27T21:12:56.492Z,100.00
2022-07-27T21:15:23.322Z,100.00
2022-07-27T21:18:01.011Z,100.00
2022-07-27T21:20:28.919Z,100.00
2022-07-27T21:23:14.305Z,100.00
2022-07-27T21:25:41.087Z,100.00
2022-07-27T21:28:10.189Z,100.00
2022-07-27T21:30:39.288Z,100.00
2022-07-27T21:33:09.042Z,100.00
2022-07-27T21:35:35.971Z,100.00
2022-07-27T21:38:04.665Z,100.00
2022-07-27T21:40:32.333Z,100.00
2022-07-27T21:42:59.125Z,100.00
2022-07-27T21:45:25.967Z,100.00
2022-07-27T21:47:52.822Z,100.00
2022-07-27T21:50:19.749Z,100.00
2022-07-27T21:52:46.680Z,100.00
2022-07-27T21:55:13.448Z,100.00
2022-07-27T21:57:50.720Z,100.00
2022-07-27T22:00:23.822Z,100.00
2022-07-27T22:02:52.267Z,100.00
2022-07-27T22:05:19.316Z,100.00
2022-07-27T22:07:46.052Z,100.00
2022-07-27T22:10:12.892Z,100.00
2022-07-27T22:12:39.673Z,100.00
2022-07-27T22:15:06.935Z,100.00
2022-07-27T22:17:33.747Z,100.00
2022-07-27T22:20:00.661Z,100.00
2022-07-27T22:22:27.499Z,100.00
2022-07-27T22:24:54.283Z,100.00
2022-07-27T22:27:21.176Z,100.00
2022-07-27T22:29:47.942Z,100.00
2022-07-27T22:32:14.786Z,100.00
2022-07-27T22:34:41.555Z,100.00
2022-07-27T22:37:08.336Z,100.00
2022-07-27T22:39:35.520Z,100.00
2022-07-27T22:42:04.554Z,100.00
2022-07-27T22:44:31.303Z,100.00
2022-07-27T22:46:58.302Z,100.00
2022-07-27T22:49:25.149Z,100.00
2022-07-27T22:51:52.901Z,100.00
2022-07-27T22:54:21.470Z,100.00
2022-07-27T22:56:48.445Z,100.00
2022-07-27T22:59:15.350Z,100.00
2022-07-27T23:01:46.987Z,100.00
2022-07-27T23:04:16.760Z,100.00
2022-07-27T23:06:44.431Z,100.00
2022-07-27T23:09:11.306Z,100.00
2022-07-27T23:11:38.308Z,100.00
2022-07-27T23:14:05.139Z,100.00
2022-07-27T23:16:31.984Z,100.00
2022-07-27T23:18:58.783Z,100.00
2022-07-27T23:21:25.705Z,100.00
2022-07-27T23:23:53.749Z,100.00
2022-07-27T23:26:22.947Z,100.00
2022-07-27T23:28:53.148Z,100.00
2022-07-27T23:31:19.922Z,100.00
2022-07-27T23:33:47.085Z,100.00
2022-07-27T23:36:14.008Z,100.00
2022-07-27T23:38:40.918Z,100.00
2022-07-27T23:41:08.297Z,100.00
2022-07-27T23:43:35.088Z,100.00
2022-07-27T23:46:03.080Z,100.00
2022-07-27T23:48:29.905Z,100.00
2022-07-27T23:50:56.715Z,100.00
2022-07-27T23:53:23.995Z,100.00
2022-07-27T23:55:51.138Z,100.00
2022-07-27T23:58:17.875Z,100.00
